Time;durP1;ratioP1;P1;durP2;ratioP2;P2;SDS_P1;SDS_P2;PMS_P1;PMS_P2;Temp;Humidity;BMP_temperature;BMP_pressure;BME280_temperature;BME280_humidity;BME280_pressure;Samples;Min_cycle;Max_cycle;Signal;HPM_P1;HPM_P2
2023/03/11 00:01:49;;;;;;;31.00;21.27;;;308.00;2304.00;;;;;;5073449;28;20024;-79
2023/03/11 00:04:15;;;;;;;32.13;20.33;;;307.80;2304.00;;;;;;5071562;28;20401;-79
2023/03/11 00:06:41;;;;;;;21.00;15.30;;;307.90;2304.00;;;;;;5072072;28;20082;-79
2023/03/11 00:09:07;;;;;;;18.65;13.77;;;307.90;2304.00;;;;;;5072871;28;20016;-78
2023/03/11 00:11:32;;;;;;;20.33;13.40;;;307.90;2304.00;;;;;;5071995;28;20021;-78
2023/03/11 00:13:58;;;;;;;21.38;13.10;;;307.90;2304.00;;;;;;5056022;28;20493;-79
2023/03/11 00:16:24;;;;;;;20.63;14.30;;;307.90;2304.00;;;;;;5056430;28;20029;-79
2023/03/11 00:18:50;;;;;;;15.15;9.98;;;307.90;2304.00;;;;;;5073153;28;20103;-79
2023/03/11 00:21:17;;;;;;;15.77;10.63;;;308.00;2304.00;;;;;;5070648;28;20032;-79
2023/03/11 00:23:44;;;;;;;19.58;10.57;;;308.00;2304.00;;;;;;5071690;28;20468;-78
2023/03/11 00:26:09;;;;;;;19.17;10.18;;;307.90;2304.00;;;;;;5070969;28;20048;-78
2023/03/11 00:28:35;;;;;;;13.32;10.57;;;307.90;2304.00;;;;;;5088563;28;20427;-79
2023/03/11 00:31:02;;;;;;;16.70;10.50;;;307.90;2304.00;;;;;;5072982;28;20103;-79
2023/03/11 00:33:28;;;;;;;14.10;10.57;;;307.90;2304.00;;;;;;5071619;28;20083;-78
2023/03/11 00:35:53;;;;;;;15.75;10.60;;;307.90;2304.00;;;;;;5073173;28;20472;-78
2023/03/11 00:38:20;;;;;;;13.85;9.15;;;307.90;2304.00;;;;;;5072858;28;20016;-79
2023/03/11 00:40:47;;;;;;;12.75;8.88;;;307.80;2304.00;;;;;;5080780;28;20067;-79
2023/03/11 00:43:14;;;;;;;12.82;7.28;;;307.80;2304.00;;;;;;5072452;28;20116;-79
2023/03/11 00:45:40;;;;;;;10.15;6.57;;;307.80;2304.00;;;;;;5071187;28;20049;-79
2023/03/11 00:48:06;;;;;;;8.65;5.10;;;307.80;2304.00;;;;;;5088280;28;20025;-80
2023/03/11 00:50:35;;;;;;;7.10;4.70;;;307.70;2304.00;;;;;;5072412;28;20029;-78
2023/03/11 00:53:02;;;;;;;7.40;4.22;;;307.80;2304.00;;;;;;5075244;28;20021;-78
2023/03/11 00:55:30;;;;;;;8.07;4.20;;;307.80;2304.00;;;;;;5075245;28;20523;-79
2023/03/11 00:58:02;;;;;;;7.55;4.18;;;307.80;2304.00;;;;;;5063281;28;20020;-78
2023/03/11 01:00:29;;;;;;;7.38;4.05;;;307.80;2304.00;;;;;;5074874;28;20527;-78
2023/03/11 01:02:56;;;;;;;8.30;4.72;;;307.80;2304.00;;;;;;5074675;28;20021;-78
2023/03/11 01:05:25;;;;;;;6.38;3.38;;;307.60;2304.00;;;;;;5075939;28;20150;-77
2023/03/11 01:07:50;;;;;;;6.50;3.72;;;307.70;2304.00;;;;;;5074972;28;20499;-78
2023/03/11 01:10:16;;;;;;;9.85;3.78;;;307.70;2304.00;;;;;;5073565;28;20126;-79
2023/03/11 01:12:42;;;;;;;5.07;3.47;;;307.70;2304.00;;;;;;5074564;28;20024;-78
2023/03/11 01:15:15;;;;;;;7.80;3.72;;;307.70;2304.00;;;;;;5076156;28;20503;-78
2023/03/11 01:17:41;;;;;;;7.85;4.00;;;307.70;2304.00;;;;;;5074703;28;20024;-78
2023/03/11 01:20:09;;;;;;;8.20;4.10;;;307.60;2304.00;;;;;;5074009;28;20507;-78
2023/03/11 01:22:35;;;;;;;9.23;3.90;;;307.60;2304.00;;;;;;5080845;28;20029;-79
2023/03/11 01:25:00;;;;;;;5.22;2.97;;;307.60;2304.00;;;;;;5078235;28;20139;-79
2023/03/11 01:27:27;;;;;;;4.55;2.80;;;307.60;2304.00;;;;;;5075598;28;20052;-79
2023/03/11 01:29:53;;;;;;;7.07;3.90;;;307.50;2304.00;;;;;;5074629;28;20028;-79
2023/03/11 01:32:18;;;;;;;10.27;4.05;;;307.60;2304.00;;;;;;5074746;28;20017;-77
2023/03/11 01:34:44;;;;;;;6.70;3.40;;;307.50;2304.00;;;;;;5075376;28;20052;-79
2023/03/11 01:37:10;;;;;;;7.43;3.65;;;307.50;2304.00;;;;;;5075586;28;20549;-79
2023/03/11 01:39:35;;;;;;;7.68;4.10;;;307.50;2304.00;;;;;;5074084;28;20021;-79
2023/03/11 01:42:01;;;;;;;5.47;3.10;;;307.50;2304.00;;;;;;5073861;28;20033;-78
2023/03/11 01:44:27;;;;;;;6.88;3.33;;;307.50;2304.00;;;;;;5087744;28;20037;-77
2023/03/11 01:46:52;;;;;;;6.70;3.28;;;307.40;2304.00;;;;;;5065092;28;20031;-78
2023/03/11 01:49:20;;;;;;;5.95;3.50;;;307.40;2304.00;;;;;;5061973;28;20025;-78
2023/03/11 01:51:53;;;;;;;6.38;3.40;;;307.50;2304.00;;;;;;5075214;28;20056;-78
2023/03/11 01:54:22;;;;;;;7.95;3.28;;;307.40;2304.00;;;;;;5057104;28;20029;-78
2023/03/11 01:56:49;;;;;;;5.72;3.58;;;307.40;2304.00;;;;;;5090746;28;20020;-78
2023/03/11 01:59:18;;;;;;;6.25;4.05;;;307.40;2304.00;;;;;;5074829;28;20107;-78
2023/03/11 02:02:12;;;;;;;5.18;3.67;;;307.40;2304.00;;;;;;5082198;28;20473;-77
2023/03/11 02:04:39;;;;;;;6.03;3.78;;;307.40;2304.00;;;;;;5064254;28;20099;-78
2023/03/11 02:07:07;;;;;;;7.00;3.97;;;307.40;2304.00;;;;;;5074900;28;20025;-78
2023/03/11 02:09:33;;;;;;;8.07;3.58;;;307.40;2304.00;;;;;;5073648;28;20052;-78
2023/03/11 02:11:59;;;;;;;5.97;3.95;;;307.40;2304.00;;;;;;5074586;28;20075;-78
2023/03/11 02:14:26;;;;;;;6.45;4.20;;;307.40;2304.00;;;;;;5073287;28;20028;-79
2023/03/11 02:16:52;;;;;;;7.18;4.57;;;307.40;2304.00;;;;;;5074503;28;20029;-78
2023/03/11 02:19:39;;;;;;;8.45;4.90;;;307.40;2304.00;;;;;;5073267;28;20029;-78
2023/03/11 02:22:05;;;;;;;8.52;5.20;;;307.40;2304.00;;;;;;5074770;28;20013;-79
2023/03/11 02:24:34;;;;;;;9.27;5.13;;;307.30;2304.00;;;;;;5074492;28;20094;-79
2023/03/11 02:27:05;;;;;;;8.55;4.22;;;307.30;2304.00;;;;;;5074694;28;20075;-79
2023/03/11 02:29:32;;;;;;;7.15;4.32;;;307.20;2304.00;;;;;;5072970;28;20397;-79
2023/03/11 02:32:01;;;;;;;18.90;9.05;;;307.20;2304.00;;;;;;5073207;28;20028;-78
2023/03/11 02:34:30;;;;;;;14.35;7.60;;;307.20;2304.00;;;;;;5089789;28;20095;-79
2023/03/11 02:36:57;;;;;;;18.98;8.07;;;307.30;2304.00;;;;;;5073469;28;20043;-78
2023/03/11 02:39:46;;;;;;;17.52;8.68;;;307.30;2048.00;;;;;;5073020;28;20526;-78
2023/03/11 02:42:30;;;;;;;13.35;6.63;;;307.30;2304.00;;;;;;5072970;28;20028;-79
2023/03/11 02:45:07;;;;;;;20.80;9.73;;;307.30;2073.60;;;;;;5060179;28;20060;-78
2023/03/11 02:47:34;;;;;;;21.17;12.15;;;307.40;2304.00;;;;;;5074054;28;20102;-78
2023/03/11 02:50:00;;;;;;;18.75;9.52;;;307.50;2304.00;;;;;;5089993;28;20492;-78
2023/03/11 02:52:32;;;;;;;12.00;7.10;;;307.50;2304.00;;;;;;5072977;28;20025;-78
2023/03/11 02:54:58;;;;;;;8.55;5.20;;;307.50;2304.00;;;;;;5073998;28;20457;-78
2023/03/11 02:57:24;;;;;;;8.25;4.85;;;307.50;2304.00;;;;;;5089846;28;20046;-79
2023/03/11 02:59:49;;;;;;;11.70;5.78;;;307.50;2304.00;;;;;;5078164;28;20109;-79
2023/03/11 03:02:15;;;;;;;12.18;4.85;;;307.50;2304.00;;;;;;5094996;28;20530;-78
2023/03/11 03:04:41;;;;;;;10.85;6.25;;;307.50;2304.00;;;;;;5076018;28;20041;-78
2023/03/11 03:07:06;;;;;;;10.05;5.80;;;307.50;2304.00;;;;;;5073964;28;20052;-79
2023/03/11 03:09:33;;;;;;;8.00;4.63;;;307.60;2304.00;;;;;;5089361;28;20477;-78
2023/03/11 03:11:59;;;;;;;11.13;5.55;;;307.50;2304.00;;;;;;5072368;28;20036;-79
2023/03/11 03:14:25;;;;;;;8.57;4.45;;;307.60;2304.00;;;;;;5071412;28;20542;-78
2023/03/11 03:16:51;;;;;;;8.00;5.18;;;307.50;2304.00;;;;;;5089328;28;20064;-79
2023/03/11 03:19:17;;;;;;;7.70;4.50;;;307.50;2304.00;;;;;;5073595;28;20047;-78
2023/03/11 03:21:42;;;;;;;9.15;5.18;;;307.50;2304.00;;;;;;5072333;28;20040;-79
2023/03/11 03:24:08;;;;;;;7.05;4.30;;;307.50;2304.00;;;;;;5072159;28;20020;-79
2023/03/11 03:26:35;;;;;;;8.93;3.78;;;307.60;2304.00;;;;;;5076440;28;20020;-78
2023/03/11 03:29:01;;;;;;;6.70;3.60;;;307.60;2304.00;;;;;;5073484;28;20021;-78
2023/03/11 03:31:26;;;;;;;9.27;3.78;;;307.60;2304.00;;;;;;5073438;28;20047;-78
2023/03/11 03:33:52;;;;;;;17.27;8.18;;;307.60;2304.00;;;;;;5072002;28;20040;-79
2023/03/11 03:36:18;;;;;;;14.15;6.95;;;307.60;2304.00;;;;;;5073630;28;20020;-79
2023/03/11 03:38:43;;;;;;;7.30;3.75;;;307.60;2304.00;;;;;;5072070;28;20021;-79
2023/03/11 03:41:12;;;;;;;7.13;3.80;;;307.60;2304.00;;;;;;5088832;28;20060;-79
2023/03/11 03:43:37;;;;;;;8.10;3.35;;;307.50;2304.00;;;;;;5072009;28;20060;-78
2023/03/11 03:46:04;;;;;;;15.73;6.57;;;307.50;2304.00;;;;;;5071892;28;20512;-79
2023/03/11 03:48:30;;;;;;;6.68;3.90;;;307.70;2304.00;;;;;;5072003;28;20385;-79
2023/03/11 03:51:00;;;;;;;8.23;3.47;;;307.60;2304.00;;;;;;5073233;28;20015;-78
2023/03/11 03:53:26;;;;;;;8.38;3.25;;;307.60;2304.00;;;;;;5073528;28;20043;-79
2023/03/11 03:55:53;;;;;;;6.60;3.97;;;307.60;2304.00;;;;;;5073096;28;20477;-79
2023/03/11 03:58:19;;;;;;;7.32;3.63;;;307.60;2304.00;;;;;;5072193;28;20031;-79
2023/03/11 04:00:44;;;;;;;5.32;3.38;;;307.60;2304.00;;;;;;5071942;28;20016;-79
2023/03/11 04:03:10;;;;;;;7.28;4.10;;;307.70;2304.00;;;;;;5088918;28;20476;-79
2023/03/11 04:05:36;;;;;;;5.88;3.50;;;307.60;2304.00;;;;;;5072915;28;20033;-78
2023/03/11 04:08:02;;;;;;;7.97;3.85;;;307.70;2304.00;;;;;;5073196;28;20025;-79
2023/03/11 04:10:28;;;;;;;6.68;3.53;;;307.60;2304.00;;;;;;5088276;28;20100;-78
2023/03/11 04:12:53;;;;;;;6.40;3.78;;;307.60;2304.00;;;;;;5073093;28;20392;-78
2023/03/11 04:15:19;;;;;;;9.32;4.30;;;307.60;2304.00;;;;;;5071801;28;20043;-79
2023/03/11 04:17:45;;;;;;;5.32;3.13;;;307.50;2304.00;;;;;;5073324;28;20376;-78
2023/03/11 04:20:11;;;;;;;5.43;3.72;;;307.60;2304.00;;;;;;5072963;28;20545;-79
2023/03/11 04:22:37;;;;;;;7.03;3.80;;;307.50;2304.00;;;;;;5072673;28;20025;-79
2023/03/11 04:25:02;;;;;;;7.13;3.58;;;307.40;2304.00;;;;;;5072890;28;20028;-78
2023/03/11 04:27:28;;;;;;;6.10;3.35;;;307.40;2304.00;;;;;;5076599;28;20028;-79
2023/03/11 04:29:54;;;;;;;11.73;5.90;;;307.40;2304.00;;;;;;5076495;28;20535;-79
2023/03/11 04:32:21;;;;;;;13.60;7.10;;;307.40;2304.00;;;;;;5075576;28;20017;-78
2023/03/11 04:34:47;;;;;;;13.18;6.63;;;307.40;2304.00;;;;;;5075536;28;20484;-79
2023/03/11 04:37:13;;;;;;;11.82;6.07;;;307.40;2304.00;;;;;;5075371;28;20074;-79
2023/03/11 04:39:39;;;;;;;12.48;7.25;;;307.50;2304.00;;;;;;5076693;28;20036;-78
2023/03/11 04:42:04;;;;;;;11.27;6.25;;;307.40;2304.00;;;;;;5076481;28;20122;-79
2023/03/11 04:44:30;;;;;;;9.50;4.70;;;307.20;2304.00;;;;;;5076182;28;20033;-79
2023/03/11 04:46:56;;;;;;;9.50;5.40;;;282.50;2278.40;;;;;;5076798;28;20025;-79
2023/03/11 04:49:22;;;;;;;17.23;7.97;;;307.20;2304.00;;;;;;5061857;28;20036;-78
2023/03/11 04:51:47;;;;;;;17.55;8.48;;;307.30;2304.00;;;;;;5075510;28;20056;-79
2023/03/11 04:54:13;;;;;;;11.25;5.88;;;307.30;2304.00;;;;;;5074943;28;20021;-79
2023/03/11 04:56:39;;;;;;;9.52;5.05;;;307.40;2304.00;;;;;;5075211;28;20016;-79
2023/03/11 04:59:04;;;;;;;11.40;5.15;;;307.40;2304.00;;;;;;5075136;28;20028;-79
2023/03/11 05:01:30;;;;;;;9.50;5.68;;;307.40;2304.00;;;;;;5076546;28;20428;-79
2023/03/11 05:03:56;;;;;;;9.18;5.38;;;307.40;2304.00;;;;;;5075833;28;20060;-77
2023/03/11 05:06:21;;;;;;;7.90;4.70;;;307.30;2304.00;;;;;;5075998;28;20086;-77
2023/03/11 05:08:47;;;;;;;11.80;4.53;;;307.30;2304.00;;;;;;5075928;28;20453;-77
2023/03/11 05:11:13;;;;;;;14.65;7.22;;;307.30;2304.00;;;;;;5073693;28;20028;-78
2023/03/11 05:13:38;;;;;;;15.80;11.98;;;307.40;2304.00;;;;;;5078267;28;20029;-78
2023/03/11 05:16:04;;;;;;;19.85;11.93;;;307.40;2304.00;;;;;;5074331;28;20040;-78
2023/03/11 05:18:31;;;;;;;11.93;5.97;;;307.30;2304.00;;;;;;5074642;28;20081;-78
2023/03/11 05:20:57;;;;;;;8.27;4.45;;;307.30;2304.00;;;;;;5075989;28;20020;-77
2023/03/11 05:23:22;;;;;;;6.43;3.65;;;307.30;2304.00;;;;;;5075597;28;20504;-79
2023/03/11 05:25:48;;;;;;;12.88;5.13;;;307.20;2304.00;;;;;;5074470;28;20127;-79
2023/03/11 05:28:14;;;;;;;13.30;5.43;;;282.50;2278.40;;;;;;5074601;28;20107;-78
2023/03/11 05:30:40;;;;;;;8.38;5.20;;;282.50;2278.40;;;;;;5074561;28;20029;-79
2023/03/11 05:33:05;;;;;;;7.10;3.78;;;282.50;2278.40;;;;;;5073736;28;20043;-77
2023/03/11 05:35:31;;;;;;;8.13;4.15;;;282.50;2278.40;;;;;;5075750;28;20033;-79
2023/03/11 05:37:58;;;;;;;9.20;5.35;;;282.50;2278.40;;;;;;5074587;28;20048;-79
2023/03/11 05:40:24;;;;;;;11.65;6.35;;;307.20;2304.00;;;;;;5074398;28;20029;-78
2023/03/11 05:42:50;;;;;;;9.90;6.60;;;307.20;2304.00;;;;;;5090652;28;20027;-79
2023/03/11 05:45:16;;;;;;;14.75;6.47;;;307.20;2304.00;;;;;;5074071;28;20480;-79
2023/03/11 05:47:42;;;;;;;9.43;5.15;;;307.20;2304.00;;;;;;5075458;28;20027;-79
2023/03/11 05:50:09;;;;;;;12.65;5.90;;;307.30;2304.00;;;;;;5074176;28;20393;-79
2023/03/11 05:52:35;;;;;;;12.00;7.40;;;307.30;2304.00;;;;;;5075491;28;20047;-79
2023/03/11 05:55:00;;;;;;;17.73;9.85;;;307.40;2304.00;;;;;;5074074;28;20435;-80
2023/03/11 05:57:27;;;;;;;22.58;13.95;;;307.40;2304.00;;;;;;5074800;28;20013;-80
2023/03/11 05:59:52;;;;;;;37.42;23.75;;;307.40;2304.00;;;;;;5075161;28;20029;-79
2023/03/11 06:02:19;;;;;;;22.02;15.20;;;307.40;2304.00;;;;;;5073768;28;20430;-79
2023/03/11 06:04:45;;;;;;;15.60;9.93;;;307.40;2304.00;;;;;;5075443;28;20032;-79
2023/03/11 06:07:13;;;;;;;15.23;9.50;;;307.40;2304.00;;;;;;5073399;28;20039;-76
2023/03/11 06:09:39;;;;;;;14.13;9.15;;;307.40;2304.00;;;;;;5073900;28;20029;-79
2023/03/11 06:12:05;;;;;;;11.20;6.53;;;307.40;2304.00;;;;;;5074532;28;20042;-78
2023/03/11 06:14:34;;;;;;;13.15;6.38;;;307.40;2304.00;;;;;;5074997;28;20029;-79
2023/03/11 06:16:59;;;;;;;15.35;7.28;;;307.40;2304.00;;;;;;5073091;28;20024;-80
2023/03/11 06:19:25;;;;;;;14.27;6.93;;;307.40;2304.00;;;;;;5074981;28;20024;-79
2023/03/11 06:21:51;;;;;;;15.70;7.80;;;307.50;2304.00;;;;;;5074593;28;20012;-79
2023/03/11 06:24:18;;;;;;;21.33;10.07;;;307.60;2304.00;;;;;;5073217;28;20104;-76
2023/03/11 06:26:43;;;;;;;15.50;6.57;;;307.40;2304.00;;;;;;5073270;28;20024;-76
2023/03/11 06:29:13;;;;;;;11.30;4.53;;;307.30;2304.00;;;;;;5077652;28;20043;-78
2023/03/11 06:31:40;;;;;;;7.88;4.20;;;307.20;2304.00;;;;;;5076430;28;20108;-76
2023/03/11 06:34:06;;;;;;;8.43;4.10;;;307.30;2304.00;;;;;;5090537;28;20450;-76
2023/03/11 06:36:32;;;;;;;9.23;2.30;;;307.30;2304.00;;;;;;5074031;28;20044;-75
2023/03/11 06:38:58;;;;;;;6.43;2.70;;;307.30;2304.00;;;;;;5074342;28;20020;-84
2023/03/11 06:41:24;;;;;;;6.60;1.98;;;307.40;2304.00;;;;;;5074043;28;20169;-74
2023/03/11 06:43:50;;;;;;;4.05;1.80;;;307.40;2304.00;;;;;;5073866;28;20036;-77
2023/03/11 06:46:21;;;;;;;2.30;1.52;;;307.40;2304.00;;;;;;5072466;28;20042;-79
2023/03/11 06:48:51;;;;;;;5.78;2.50;;;307.40;2304.00;;;;;;5073571;28;20138;-80
2023/03/11 06:51:17;;;;;;;7.15;3.65;;;307.40;2304.00;;;;;;5059277;28;20056;-76
2023/03/11 06:53:43;;;;;;;9.45;4.80;;;307.40;2304.00;;;;;;5054031;28;20020;-77
2023/03/11 06:56:11;;;;;;;7.43;3.55;;;307.30;2304.00;;;;;;5053257;28;20036;-80
2023/03/11 06:58:38;;;;;;;5.20;2.38;;;307.30;2304.00;;;;;;5072857;28;20029;-78
2023/03/11 07:01:06;;;;;;;4.28;2.28;;;307.20;2304.00;;;;;;5070043;28;20055;-75
2023/03/11 07:03:32;;;;;;;4.53;1.90;;;307.30;2304.00;;;;;;5063919;28;20033;-77
2023/03/11 07:05:58;;;;;;;7.22;1.52;;;307.30;2304.00;;;;;;5073106;28;20147;-74
2023/03/11 07:08:24;;;;;;;3.08;1.35;;;307.30;2304.00;;;;;;5072950;28;20492;-73
2023/03/11 07:11:05;;;;;;;4.13;1.42;;;307.30;2304.00;;;;;;5073222;28;20043;-75
2023/03/11 07:13:31;;;;;;;6.70;1.92;;;307.30;2304.00;;;;;;5072772;28;20389;-75
2023/03/11 07:16:20;;;;;;;5.20;2.15;;;307.30;2304.00;;;;;;5063055;28;20036;-77
2023/03/11 07:18:47;;;;;;;7.53;2.17;;;307.20;2304.00;;;;;;5060529;28;20013;-77
2023/03/11 07:21:15;;;;;;;7.32;2.05;;;307.20;2304.00;;;;;;5072895;28;20021;-78
2023/03/11 07:23:41;;;;;;;8.98;2.65;;;282.50;2278.40;;;;;;5072003;28;20021;-77
2023/03/11 07:26:14;;;;;;;4.95;2.85;;;282.50;2278.40;;;;;;5072356;28;20119;-77
2023/03/11 07:28:40;;;;;;;6.63;2.47;;;282.40;2278.40;;;;;;5073598;28;20032;-77
2023/03/11 07:31:10;;;;;;;6.82;2.35;;;282.40;2278.40;;;;;;5073081;28;20051;-76
2023/03/11 07:33:37;;;;;;;9.15;3.05;;;282.30;2278.40;;;;;;5068784;28;20080;-76
2023/03/11 07:36:10;;;;;;;5.88;1.48;;;282.20;2278.40;;;;;;5065385;28;20600;-75
2023/03/11 07:38:36;;;;;;;5.00;2.38;;;282.20;2278.40;;;;;;5060950;28;20064;-76
2023/03/11 07:41:02;;;;;;;5.70;2.05;;;282.30;2278.40;;;;;;5072231;28;20477;-75
2023/03/11 07:43:28;;;;;;;2.63;1.45;;;282.50;2278.40;;;;;;5073259;28;20038;-75
2023/03/11 07:46:17;;;;;;;4.50;2.10;;;282.50;2278.40;;;;;;5072121;28;20399;-77
2023/03/11 07:48:44;;;;;;;6.05;2.20;;;282.50;2278.40;;;;;;5072250;28;20043;-77
2023/03/11 07:51:15;;;;;;;5.28;2.65;;;282.40;2278.40;;;;;;5072211;28;20024;-79
2023/03/11 07:53:42;;;;;;;5.97;2.22;;;282.30;2278.40;;;;;;5056210;28;20035;-78
2023/03/11 07:56:10;;;;;;;14.32;2.65;;;282.20;2278.40;;;;;;5071877;28;20077;-77
2023/03/11 07:58:36;;;;;;;15.88;2.88;;;282.10;2278.40;;;;;;5073445;28;20109;-78
2023/03/11 08:01:15;;;;;;;9.77;1.88;;;282.00;2278.40;;;;;;5071290;28;20051;-76
2023/03/11 08:03:42;;;;;;;5.72;2.08;;;281.80;2278.40;;;;;;5082701;28;20029;-76
2023/03/11 08:06:18;;;;;;;13.20;3.45;;;281.70;2278.40;;;;;;5088446;28;20033;-77
2023/03/11 08:08:44;;;;;;;11.45;2.78;;;256.90;2252.80;;;;;;5084438;28;20028;-76
2023/03/11 08:11:14;;;;;;;21.08;2.45;;;256.80;2252.80;;;;;;5071699;28;20028;-77
2023/03/11 08:13:44;;;;;;;18.10;2.10;;;256.70;2252.80;;;;;;5088561;28;20025;-76
2023/03/11 08:16:13;;;;;;;11.25;2.13;;;256.60;2252.80;;;;;;5088061;28;20024;-76
2023/03/11 08:18:39;;;;;;;15.20;2.30;;;256.20;2252.80;;;;;;5067757;28;20021;-77
2023/03/11 08:21:07;;;;;;;13.27;2.45;;;231.30;2252.80;;;;;;5056940;28;20020;-76
2023/03/11 08:23:33;;;;;;;9.20;1.95;;;231.30;2252.80;;;;;;5056311;28;20477;-76
2023/03/11 08:26:01;;;;;;;15.98;2.53;;;231.30;2252.80;;;;;;5067120;28;20044;-82
2023/03/11 08:28:27;;;;;;;19.60;3.17;;;231.30;2252.80;;;;;;5071738;28;20057;-83
2023/03/11 08:30:52;;;;;;;13.65;2.50;;;231.30;2252.80;;;;;;5087987;28;20056;-76
2023/03/11 08:33:18;;;;;;;;;;;231.30;2252.80;;;;;;5071716;28;20110;-78
2023/03/11 08:35:44;;;;;;;22.15;2.47;;;231.10;2252.80;;;;;;5088190;28;20284;-77
2023/03/11 08:38:09;;;;;;;;;;;231.10;2252.80;;;;;;5072096;28;20392;-80
2023/03/11 08:40:35;;;;;;;23.38;2.78;;;230.90;2252.80;;;;;;5071583;28;19904;-77
2023/03/11 08:43:01;;;;;;;;;;;230.80;2252.80;;;;;;5073349;28;20033;-77
2023/03/11 08:45:26;;;;;;;16.40;2.45;;;230.80;2252.80;;;;;;5061718;28;19927;-77
2023/03/11 08:47:52;;;;;;;;;;;230.80;2252.80;;;;;;5060445;28;20025;-77
2023/03/11 08:50:19;;;;;;;11.23;2.80;;;230.90;2252.80;;;;;;5071979;28;20383;-76
2023/03/11 08:52:44;;;;;;;12.25;2.92;;;230.90;2252.80;;;;;;5073745;28;20028;-78
2023/03/11 08:55:17;;;;;;;21.23;2.75;;;230.70;2252.80;;;;;;5060946;28;20008;-79
2023/03/11 08:57:43;;;;;;;12.50;2.60;;;230.60;2252.80;;;;;;5072793;28;20016;-78
2023/03/11 09:00:11;;;;;;;8.90;2.08;;;230.50;2252.80;;;;;;5072796;28;20020;-79
2023/03/11 09:02:37;;;;;;;12.30;2.38;;;205.70;2252.80;;;;;;5066775;28;20068;-78
2023/03/11 09:05:03;;;;;;;9.63;3.88;;;205.50;2252.80;;;;;;5064262;28;20068;-77
2023/03/11 09:07:28;;;;;;;;;;;205.60;2252.80;;;;;;5072085;28;20077;-79
2023/03/11 09:09:54;;;;;;;6.15;2.15;;;205.30;2252.80;;;;;;5072473;28;19904;-77
2023/03/11 09:12:19;;;;;;;;;;;205.20;2252.80;;;;;;5072974;28;20021;-77
2023/03/11 09:14:45;;;;;;;6.47;2.35;;;204.90;2252.80;;;;;;5091748;28;19908;-78
2023/03/11 09:17:11;;;;;;;;;;;204.90;2252.80;;;;;;5065046;28;20036;-78
2023/03/11 09:19:37;;;;;;;9.88;1.95;;;204.90;2252.80;;;;;;5054647;28;19905;-76
2023/03/11 09:22:04;;;;;;;12.98;2.08;;;204.80;2252.80;;;;;;5061901;28;20497;-77
2023/03/11 09:24:34;;;;;;;9.63;3.40;;;180.10;2252.80;;;;;;5075956;28;20020;-77
2023/03/11 09:27:00;;;;;;;15.90;2.78;;;204.80;2252.80;;;;;;5069761;28;20025;-84
2023/03/11 09:29:26;;;;;;;12.13;2.53;;;180.10;2252.80;;;;;;5054419;28;20064;-77
2023/03/11 09:31:51;;;;;;;;;;;180.00;2252.80;;;;;;5062643;28;20092;-77
2023/03/11 09:34:17;;;;;;;21.50;3.83;;;180.00;2252.80;;;;;;5075598;28;19955;-80
2023/03/11 09:36:43;;;;;;;29.48;4.47;;;180.10;2252.80;;;;;;5076136;28;20075;-77
2023/03/11 09:39:09;;;;;;;8.52;2.25;;;204.80;2252.80;;;;;;5075029;28;20033;-84
2023/03/11 09:41:40;;;;;;;;;;;180.10;2252.80;;;;;;5084454;28;20066;-76
2023/03/11 09:44:36;;;;;;;9.32;1.70;;;180.10;2252.80;;;;;;5068159;28;19909;-80
2023/03/11 09:47:36;;;;;;;11.45;3.22;;;180.00;2252.80;;;;;;5102129;28;20035;-77
2023/03/11 09:50:24;;;;;;;11.73;2.50;;;179.90;2252.80;;;;;;5091063;28;20033;-81
2023/03/11 09:53:01;;;;;;;5.55;2.72;;;180.00;2252.80;;;;;;5063542;28;20350;-84
2023/03/11 09:55:42;;;;;;;8.48;2.78;;;179.90;2252.80;;;;;;5091451;28;20023;-82
2023/03/11 09:58:24;;;;;;;8.23;2.67;;;180.00;2252.80;;;;;;5074851;28;20017;-83
2023/03/11 10:00:51;;;;;;;10.05;2.20;;;204.80;2252.80;;;;;;5078996;28;20123;-77
2023/03/11 10:03:35;;;;;;;10.88;2.22;;;204.80;2252.80;;;;;;5075464;28;20103;-78
2023/03/11 10:06:25;;;;;;;5.55;2.40;;;204.80;2252.80;;;;;;5075311;28;20044;-78
2023/03/11 10:09:01;;;;;;;20.92;4.03;;;204.90;2252.80;;;;;;5020829;28;20026;-77
2023/03/11 10:11:30;;;;;;;;;;;204.80;2252.80;;;;;;5034219;28;20037;-82
2023/03/11 10:14:30;;;;;;;10.77;3.42;;;205.00;2252.80;;;;;;5033410;28;20457;-79
2023/03/11 10:17:05;;;;;;;20.80;4.35;;;205.00;2252.80;;;;;;5020264;28;20022;-78
2023/03/11 10:19:58;;;;;;;12.55;3.95;;;205.20;2252.80;;;;;;5033300;28;20029;-80
2023/03/11 10:22:31;;;;;;;10.43;3.00;;;205.30;2252.80;;;;;;5033257;28;20025;-79
2023/03/11 10:25:25;;;;;;;12.32;2.35;;;205.30;2252.80;;;;;;5020681;28;20077;-79
2023/03/11 10:27:56;;;;;;;25.58;4.93;;;205.40;2252.80;;;;;;4998430;28;20410;-80
2023/03/11 10:30:33;;;;;;;9.15;4.05;;;205.20;2252.80;;;;;;5025906;28;20025;-76
2023/03/11 10:33:11;;;;;;;15.55;3.25;;;205.30;2252.80;;;;;;5020640;28;20053;-77
2023/03/11 10:35:43;;;;;;;21.02;4.88;;;205.40;2252.80;;;;;;5032703;28;20025;-83
2023/03/11 10:38:20;;;;;;;15.20;5.72;;;205.40;2252.80;;;;;;5032339;28;20029;-80
2023/03/11 10:40:49;;;;;;;15.85;4.35;;;205.20;2252.80;;;;;;5032998;28;20030;-79
2023/03/11 10:43:20;;;;;;;13.63;3.67;;;205.30;2252.80;;;;;;5015319;28;20045;-80
2023/03/11 10:45:49;;;;;;;9.57;3.22;;;205.20;2252.80;;;;;;5039037;28;20530;-77
2023/03/11 10:48:17;;;;;;;11.57;2.83;;;205.30;2252.80;;;;;;5059993;28;20060;-78
2023/03/11 10:51:13;;;;;;;16.15;5.97;;;205.20;2252.80;;;;;;5073356;28;20451;-76
2023/03/11 10:53:59;;;;;;;14.10;3.38;;;205.40;2252.80;;;;;;5053755;28;20507;-82
2023/03/11 10:56:32;;;;;;;7.40;2.65;;;205.50;2252.80;;;;;;5073252;28;20025;-82
2023/03/11 10:58:59;;;;;;;9.25;3.45;;;205.40;2252.80;;;;;;5090035;28;20020;-83
2023/03/11 11:01:27;;;;;;;12.18;4.38;;;205.40;2252.80;;;;;;5061137;28;20029;-76
2023/03/11 11:03:56;;;;;;;8.82;4.05;;;205.50;2252.80;;;;;;5052486;28;20037;-77
2023/03/11 11:06:36;;;;;;;10.43;3.90;;;205.40;2252.80;;;;;;5067141;28;20086;-82
2023/03/11 11:09:19;;;;;;;9.00;3.00;;;205.50;2252.80;;;;;;5074906;28;20480;-78
2023/03/11 11:12:12;;;;;;;11.40;4.28;;;205.40;2227.20;;;;;;5087111;28;20384;-81
2023/03/11 11:14:50;;;;;;;14.32;7.43;;;205.50;2252.80;;;;;;5073226;28;20040;-79
2023/03/11 11:17:31;;;;;;;12.70;4.57;;;205.50;2227.20;;;;;;5073412;28;20493;-82
2023/03/11 11:20:00;;;;;;;19.70;7.90;;;205.60;2150.40;;;;;;5086822;28;20036;-82
2023/03/11 11:22:27;;;;;;;26.55;9.13;;;205.60;2124.80;;;;;;5069696;28;20024;-77
2023/03/11 11:24:54;;;;;;;18.27;6.78;;;205.70;2099.20;;;;;;5073054;28;20062;-78
2023/03/11 11:27:26;;;;;;;23.67;9.10;;;205.70;2099.20;;;;;;5065403;28;20009;-77
2023/03/11 11:30:09;;;;;;;21.10;9.68;;;205.70;2073.60;;;;;;5069840;28;20078;-79
2023/03/11 11:32:36;;;;;;;9.93;3.53;;;205.70;2022.40;;;;;;5072351;28;20029;-77
2023/03/11 11:35:06;;;;;;;7.75;3.80;;;205.70;1996.80;;;;;;5058025;28;20210;-77
2023/03/11 11:37:35;;;;;;;6.22;3.33;;;230.40;2048.00;;;;;;5071809;28;20510;-78
2023/03/11 11:40:16;;;;;;;6.32;2.80;;;230.40;2022.40;;;;;;5052083;28;20021;-78
2023/03/11 11:42:49;;;;;;;10.63;3.35;;;230.40;1996.80;;;;;;5069462;28;20396;-78
2023/03/11 11:45:25;;;;;;;9.93;4.40;;;230.40;2048.00;;;;;;5072361;28;20123;-79
2023/03/11 11:47:59;;;;;;;19.83;7.00;;;230.60;2099.20;;;;;;5072393;28;20071;-81
2023/03/11 11:50:43;;;;;;;15.43;5.22;;;230.60;2048.00;;;;;;5072681;28;20127;-78
2023/03/11 11:53:12;;;;;;;18.85;6.43;;;230.60;2073.60;;;;;;5078040;28;20031;-79
2023/03/11 11:55:44;;;;;;;8.80;3.50;;;230.60;2022.40;;;;;;5072050;28;20043;-77
2023/03/11 11:58:11;;;;;;;18.52;6.45;;;230.80;2022.40;;;;;;5073483;28;20071;-77
2023/03/11 12:00:48;;;;;;;11.30;3.90;;;230.80;2022.40;;;;;;5088523;28;20071;-77
2023/03/11 12:03:48;;;;;;;22.48;9.07;;;230.90;2022.40;;;;;;5073112;28;20028;-77
2023/03/11 12:06:33;;;;;;;11.50;4.47;;;230.90;2022.40;;;;;;5073262;28;20043;-77
2023/03/11 12:09:07;;;;;;;14.75;6.25;;;231.00;1971.20;;;;;;5068883;28;20028;-77
2023/03/11 12:11:42;;;;;;;17.83;6.53;;;230.90;1945.60;;;;;;5068186;28;20040;-78
2023/03/11 12:14:29;;;;;;;23.52;8.75;;;231.00;2022.40;;;;;;5068978;28;20036;-78
2023/03/11 12:17:02;;;;;;;18.60;5.90;;;230.90;1971.20;;;;;;5071739;28;20028;-78
2023/03/11 12:19:50;;;;;;;12.85;5.32;;;231.10;1920.00;;;;;;5053022;28;20484;-77
2023/03/11 12:22:15;;;;;;;15.73;6.53;;;231.20;1945.60;;;;;;5068318;28;20029;-77
2023/03/11 12:25:04;;;;;;;23.00;6.70;;;231.00;1971.20;;;;;;5080857;28;20048;-77
2023/03/11 12:27:36;;;;;;;13.57;5.70;;;231.10;2073.60;;;;;;5075224;28;20025;-75